createdAt,value
2023-07-10T00:02:21.026Z,8.00
2023-07-10T00:04:47.815Z,8.32
2023-07-10T00:07:14.626Z,5.13
2023-07-10T00:09:41.746Z,7.78
2023-07-10T00:12:13.287Z,10.20
2023-07-10T00:14:40.232Z,11.93
2023-07-10T00:17:10.451Z,6.25
2023-07-10T00:19:38.633Z,8.60
2023-07-10T00:22:05.964Z,9.82
2023-07-10T00:24:32.801Z,6.57
2023-07-10T00:26:59.599Z,8.10
2023-07-10T00:29:32.685Z,9.27
2023-07-10T00:31:59.974Z,11.27
2023-07-10T00:34:27.201Z,7.85
2023-07-10T00:36:55.552Z,9.07
2023-07-10T00:39:25.258Z,8.25
2023-07-10T00:41:57.349Z,8.93
2023-07-10T00:44:29.702Z,7.28
2023-07-10T00:47:01.249Z,11.75
2023-07-10T00:49:37.760Z,8.57
2023-07-10T00:52:14.690Z,12.13
2023-07-10T00:54:45.481Z,8.30
2023-07-10T00:57:16.163Z,10.15
2023-07-10T00:59:43.659Z,9.70
2023-07-10T01:02:22.885Z,9.15
2023-07-10T01:04:57.115Z,11.95
2023-07-10T01:07:27.662Z,15.10
2023-07-10T01:09:58.326Z,12.30
2023-07-10T01:12:27.379Z,10.35
2023-07-10T01:14:54.184Z,12.27
2023-07-10T01:17:21.219Z,16.40
2023-07-10T01:19:49.582Z,11.98
2023-07-10T01:22:17.758Z,13.90
2023-07-10T01:24:44.606Z,11.32
2023-07-10T01:27:14.215Z,9.35
2023-07-10T01:29:45.068Z,14.48
2023-07-10T01:32:15.278Z,13.55
2023-07-10T01:34:48.735Z,13.77
2023-07-10T01:37:17.020Z,19.30
2023-07-10T01:39:46.335Z,13.65
2023-07-10T01:42:13.602Z,11.23
2023-07-10T01:44:42.965Z,10.18
2023-07-10T01:47:11.659Z,13.40
2023-07-10T01:49:45.172Z,13.90
2023-07-10T01:52:14.399Z,12.27
2023-07-10T01:54:43.077Z,12.55
2023-07-10T01:57:12.516Z,13.75
2023-07-10T01:59:39.659Z,10.05
2023-07-10T02:02:07.456Z,11.90
2023-07-10T02:04:35.281Z,14.45
2023-07-10T02:07:02.282Z,15.82
2023-07-10T02:09:30.896Z,13.85
2023-07-10T02:11:59.636Z,12.68
2023-07-10T02:14:26.619Z,14.95
2023-07-10T02:16:53.582Z,15.82
2023-07-10T02:19:20.799Z,12.32
2023-07-10T02:21:47.721Z,12.88
2023-07-10T02:24:14.723Z,13.02
2023-07-10T02:26:42.095Z,14.00
2023-07-10T02:29:10.334Z,13.75
2023-07-10T02:31:37.430Z,17.08
2023-07-10T02:34:04.414Z,19.60
2023-07-10T02:36:31.324Z,12.98
2023-07-10T02:38:58.584Z,17.27
2023-07-10T02:41:25.791Z,15.20
2023-07-10T02:43:52.636Z,11.48
2023-07-10T02:46:20.906Z,15.55
2023-07-10T02:48:47.806Z,19.65
2023-07-10T02:51:14.844Z,15.90
2023-07-10T02:53:43.301Z,17.70
2023-07-10T02:56:10.159Z,18.63
2023-07-10T02:58:37.173Z,23.48
2023-07-10T03:01:04.635Z,25.50
2023-07-10T03:03:32.865Z,17.17
2023-07-10T03:06:02.380Z,13.95
2023-07-10T03:08:30.619Z,15.95
2023-07-10T03:11:03.941Z,17.80
2023-07-10T03:13:31.024Z,12.63
2023-07-10T03:16:00.575Z,19.60
2023-07-10T03:18:27.842Z,17.85
2023-07-10T03:20:56.036Z,20.55
2023-07-10T03:23:23.058Z,21.85
2023-07-10T03:25:50.211Z,16.80
2023-07-10T03:28:17.276Z,21.33
2023-07-10T03:30:44.377Z,20.83
2023-07-10T03:33:13.694Z,25.10
2023-07-10T03:35:40.882Z,20.38
2023-07-10T03:38:10.094Z,26.40
2023-07-10T03:40:37.230Z,25.17
2023-07-10T03:43:04.464Z,25.13
2023-07-10T03:45:31.811Z,20.23
2023-07-10T03:47:58.898Z,22.35
2023-07-10T03:50:25.995Z,22.20
2023-07-10T03:52:52.854Z,27.15
2023-07-10T03:55:21.048Z,18.08
2023-07-10T03:57:47.904Z,22.35
2023-07-10T04:00:15.528Z,28.35
2023-07-10T04:02:42.345Z,19.77
2023-07-10T04:05:09.674Z,16.45
2023-07-10T04:07:36.780Z,22.45
2023-07-10T04:10:04.614Z,34.70
2023-07-10T04:12:32.983Z,18.48
2023-07-10T04:14:59.945Z,20.15
2023-07-10T04:17:26.770Z,22.92
2023-07-10T04:19:54.003Z,16.95
2023-07-10T04:22:20.790Z,24.13
2023-07-10T04:24:47.664Z,21.67
2023-07-10T04:27:14.462Z,13.48
2023-07-10T04:29:42.696Z,17.63
2023-07-10T04:32:10.444Z,22.95
2023-07-10T04:34:37.297Z,22.58
2023-07-10T04:37:04.490Z,19.55
2023-07-10T04:39:31.370Z,18.85
2023-07-10T04:41:58.201Z,20.05
2023-07-10T04:44:25.279Z,21.30
2023-07-10T04:46:53.639Z,23.88
2023-07-10T04:49:21.467Z,18.38
2023-07-10T04:51:48.530Z,16.42
2023-07-10T04:54:15.429Z,19.65
2023-07-10T04:56:42.421Z,16.98
2023-07-10T04:59:09.548Z,19.33
2023-07-10T05:01:36.574Z,17.02
2023-07-10T05:04:05.240Z,26.40
2023-07-10T05:06:32.147Z,18.00
2023-07-10T05:09:00.343Z,19.15
2023-07-10T05:11:28.959Z,18.63
2023-07-10T05:13:57.170Z,23.10
2023-07-10T05:16:24.892Z,15.68
2023-07-10T05:18:51.945Z,13.60
2023-07-10T05:21:20.461Z,18.98
2023-07-10T05:23:47.369Z,14.43
2023-07-10T05:26:16.598Z,19.08
2023-07-10T05:28:43.684Z,22.42
2023-07-10T05:31:11.941Z,11.90
2023-07-10T05:33:40.144Z,18.88
2023-07-10T05:36:09.132Z,14.02
2023-07-10T05:38:38.597Z,15.45
2023-07-10T05:41:05.897Z,14.75
2023-07-10T05:43:33.912Z,9.48
2023-07-10T05:46:01.427Z,16.13
2023-07-10T05:48:29.176Z,22.17
2023-07-10T05:50:56.892Z,11.00
2023-07-10T05:53:23.983Z,11.07
2023-07-10T05:55:54.306Z,10.15
2023-07-10T05:58:24.426Z,13.30
2023-07-10T06:00:54.179Z,8.02
2023-07-10T06:03:21.529Z,9.90
2023-07-10T06:05:55.901Z,13.38
2023-07-10T06:08:23.103Z,10.88
2023-07-10T06:10:49.960Z,10.27
2023-07-10T06:13:18.298Z,6.55
2023-07-10T06:15:47.094Z,10.60
2023-07-10T06:18:14.605Z,10.55
2023-07-10T06:20:41.637Z,14.55
2023-07-10T06:23:08.580Z,8.23
2023-07-10T06:25:35.940Z,7.90
2023-07-10T06:28:02.766Z,10.40
2023-07-10T06:30:30.987Z,6.55
2023-07-10T06:32:57.983Z,13.48
2023-07-10T06:35:25.030Z,9.80
2023-07-10T06:37:51.820Z,8.82
2023-07-10T06:40:18.808Z,11.60
2023-07-10T06:42:45.677Z,8.90
2023-07-10T06:45:13.490Z,16.45
2023-07-10T06:47:43.370Z,9.93
2023-07-10T06:50:12.708Z,9.68
2023-07-10T06:52:41.588Z,7.28
2023-07-10T06:55:12.369Z,7.32
2023-07-10T06:57:39.309Z,5.18
2023-07-10T07:00:10.083Z,9.27
2023-07-10T07:02:37.344Z,6.32
2023-07-10T07:05:07.091Z,13.90
2023-07-10T07:07:34.215Z,4.80
2023-07-10T07:10:01.110Z,12.18
2023-07-10T07:12:27.977Z,7.50
2023-07-10T07:14:55.118Z,8.13
2023-07-10T07:17:21.957Z,8.43
2023-07-10T07:19:48.803Z,7.13
2023-07-10T07:22:17.447Z,8.15
2023-07-10T07:24:44.428Z,4.78
2023-07-10T07:27:11.304Z,4.40
2023-07-10T07:29:38.547Z,7.00
2023-07-10T07:32:06.449Z,4.22
2023-07-10T07:34:33.297Z,7.20
2023-07-10T07:37:00.196Z,8.93
2023-07-10T07:39:32.908Z,7.68
2023-07-10T07:44:27.064Z,8.18
2023-07-10T07:46:53.944Z,5.65
2023-07-10T07:49:25.057Z,8.32
2023-07-10T07:51:52.548Z,5.95
2023-07-10T07:54:19.818Z,6.85
2023-07-10T07:56:48.213Z,5.97
2023-07-10T07:59:15.141Z,6.32
2023-07-10T08:01:42.148Z,4.70
2023-07-10T08:04:09.396Z,8.85
2023-07-10T08:06:36.466Z,23.17
2023-07-10T08:09:04.153Z,5.28
2023-07-10T08:11:31.027Z,4.90
2023-07-10T08:13:59.310Z,7.90
2023-07-10T08:16:26.521Z,11.50
2023-07-10T08:18:53.376Z,7.57
2023-07-10T08:21:21.008Z,5.00
2023-07-10T08:23:47.937Z,6.63
2023-07-10T08:26:15.221Z,8.23
2023-07-10T08:28:42.194Z,9.43
2023-07-10T08:31:10.574Z,5.22
2023-07-10T08:33:37.705Z,11.30
2023-07-10T08:36:07.214Z,4.80
2023-07-10T08:38:35.760Z,5.97
2023-07-10T08:41:05.570Z,11.30
2023-07-10T08:43:38.924Z,6.45
2023-07-10T08:46:09.381Z,10.98
2023-07-10T08:48:40.946Z,7.60
2023-07-10T08:51:28.784Z,9.90
2023-07-10T08:54:01.723Z,9.02
2023-07-10T08:56:34.271Z,10.30
2023-07-10T08:59:11.364Z,11.50
2023-07-10T09:01:42.362Z,6.88
2023-07-10T09:04:14.982Z,9.60
2023-07-10T09:06:47.081Z,7.78
2023-07-10T09:09:35.762Z,11.60
2023-07-10T09:12:06.694Z,14.05
2023-07-10T09:14:40.114Z,4.82
2023-07-10T09:17:20.688Z,9.25
2023-07-10T09:19:55.138Z,5.40
2023-07-10T09:22:22.447Z,5.85
2023-07-10T09:24:49.280Z,6.88
2023-07-10T09:27:16.370Z,11.88
2023-07-10T09:29:48.190Z,7.68
2023-07-10T09:32:17.230Z,17.43
2023-07-10T09:34:47.687Z,5.60
2023-07-10T09:37:18.906Z,9.80
2023-07-10T09:39:45.849Z,8.70
2023-07-10T09:42:16.288Z,10.95
2023-07-10T09:44:48.866Z,4.97
2023-07-10T09:47:16.780Z,6.90
2023-07-10T09:49:47.558Z,6.45
2023-07-10T09:52:22.758Z,4.80
2023-07-10T09:54:50.402Z,4.38
2023-07-10T09:57:19.030Z,7.68
2023-07-10T09:59:51.450Z,12.85
2023-07-10T10:02:22.214Z,5.30
2023-07-10T10:05:06.890Z,9.23
2023-07-10T10:07:39.787Z,4.07
2023-07-10T10:10:22.881Z,7.30
2023-07-10T10:12:55.737Z,9.77
2023-07-10T10:15:31.284Z,4.45
2023-07-10T10:18:03.266Z,4.85
2023-07-10T10:20:34.384Z,9.60
2023-07-10T10:23:02.664Z,11.60
2023-07-10T10:25:37.386Z,7.22
2023-07-10T10:28:23.278Z,5.88
2023-07-10T10:30:56.243Z,9.90
2023-07-10T10:33:31.931Z,9.43
2023-07-10T10:36:04.010Z,4.82
2023-07-10T10:38:42.732Z,10.33
2023-07-10T10:41:32.992Z,5.75
2023-07-10T10:44:07.133Z,5.68
2023-07-10T10:46:54.093Z,7.85
2023-07-10T10:49:42.723Z,5.63
2023-07-10T10:52:19.894Z,5.95
2023-07-10T10:54:56.222Z,4.25
2023-07-10T10:57:36.994Z,4.57
2023-07-10T11:00:19.861Z,9.20
2023-07-10T11:03:05.197Z,10.32
2023-07-10T11:05:37.797Z,5.30
2023-07-10T11:08:13.154Z,7.10
2023-07-10T11:10:43.127Z,4.18
2023-07-10T11:13:20.873Z,3.97
2023-07-10T11:15:47.863Z,7.18
2023-07-10T11:18:16.594Z,5.55
2023-07-10T11:20:43.977Z,4.65
2023-07-10T11:23:43.190Z,4.20
2023-07-10T11:26:17.926Z,4.25
2023-07-10T11:31:37.647Z,8.88
2023-07-10T11:34:39.096Z,6.13
2023-07-10T11:37:27.899Z,7.32
2023-07-10T11:39:56.550Z,5.05
2023-07-10T11:42:25.445Z,7.32
2023-07-10T11:45:01.225Z,8.02
2023-07-10T11:47:30.707Z,3.88
2023-07-10T11:50:17.220Z,5.90
2023-07-10T11:52:44.362Z,7.47
2023-07-10T11:55:24.338Z,3.75
2023-07-10T11:58:23.959Z,6.50
2023-07-10T12:00:51.804Z,10.52
2023-07-10T12:03:18.941Z,2.72
2023-07-10T12:05:49.784Z,7.18
2023-07-10T12:08:17.553Z,2.42
2023-07-10T12:10:47.549Z,9.02
2023-07-10T12:13:21.093Z,4.82
2023-07-10T12:15:51.052Z,5.95
2023-07-10T12:18:22.647Z,5.00
2023-07-10T12:20:51.533Z,3.20
2023-07-10T12:23:18.584Z,4.97
2023-07-10T12:25:50.285Z,5.20
2023-07-10T12:28:27.070Z,2.95
2023-07-10T12:30:59.339Z,4.50
2023-07-10T12:33:33.491Z,5.43
2023-07-10T12:36:07.328Z,6.45
2023-07-10T12:38:36.040Z,5.78
2023-07-10T12:41:03.915Z,6.07
2023-07-10T12:43:30.765Z,1.88
2023-07-10T12:46:01.504Z,3.55
2023-07-10T12:48:33.241Z,3.60
2023-07-10T12:51:03.936Z,4.88
2023-07-10T12:53:33.547Z,3.80
2023-07-10T12:56:09.924Z,2.22
2023-07-10T12:58:37.960Z,3.30
2023-07-10T13:01:20.723Z,4.60
2023-07-10T13:04:00.762Z,7.22
2023-07-10T13:06:27.682Z,3.58
2023-07-10T13:08:57.765Z,15.85
2023-07-10T13:11:40.569Z,3.63
2023-07-10T13:14:15.300Z,4.40
2023-07-10T13:16:45.941Z,6.13
2023-07-10T13:19:12.977Z,5.95
2023-07-10T13:21:39.819Z,4.20
2023-07-10T13:24:07.621Z,5.10
2023-07-10T13:26:34.790Z,3.20
2023-07-10T13:29:01.596Z,5.00
2023-07-10T13:31:32.247Z,3.08
2023-07-10T13:34:00.502Z,6.15
2023-07-10T13:36:28.186Z,5.82
2023-07-10T13:38:55.281Z,2.97
2023-07-10T13:41:24.229Z,4.38
2023-07-10T13:43:51.863Z,7.20
2023-07-10T13:46:21.573Z,7.50
2023-07-10T13:48:50.507Z,6.75
2023-07-10T13:51:20.337Z,4.15
2023-07-10T13:53:47.891Z,7.10
2023-07-10T13:56:17.940Z,4.47
2023-07-10T13:58:45.775Z,7.10
2023-07-10T14:01:13.991Z,8.80
2023-07-10T14:03:42.503Z,6.07
2023-07-10T14:06:37.539Z,3.25
2023-07-10T14:09:07.273Z,4.85
2023-07-10T14:11:34.695Z,5.50
2023-07-10T14:14:02.386Z,4.43
2023-07-10T14:16:31.757Z,4.88
2023-07-10T14:18:59.661Z,6.72
2023-07-10T14:21:28.041Z,4.80
2023-07-10T14:23:55.110Z,5.68
2023-07-10T14:26:24.705Z,7.72
2023-07-10T14:28:53.102Z,10.23
2023-07-10T14:31:20.525Z,6.72
2023-07-10T14:33:47.440Z,6.40
2023-07-10T14:36:16.692Z,7.90
2023-07-10T14:38:45.669Z,4.75
2023-07-10T14:41:14.208Z,8.38
2023-07-10T14:43:42.946Z,5.80
2023-07-10T14:46:15.959Z,11.05
2023-07-10T14:48:43.622Z,5.88
2023-07-10T14:51:11.363Z,8.27
2023-07-10T14:53:38.617Z,6.38
2023-07-10T14:56:13.594Z,4.38
2023-07-10T14:58:41.256Z,6.97
2023-07-10T15:01:15.409Z,5.13
2023-07-10T15:03:42.445Z,8.38
2023-07-10T15:06:21.599Z,14.05
2023-07-10T15:08:51.022Z,9.73
2023-07-10T15:11:20.078Z,7.43
2023-07-10T15:13:47.089Z,7.63
2023-07-10T15:16:17.187Z,8.30
2023-07-10T15:18:44.146Z,7.47
2023-07-10T15:21:14.748Z,7.03
2023-07-10T15:23:41.731Z,9.10
2023-07-10T15:26:08.742Z,4.95
2023-07-10T15:28:37.533Z,10.40
2023-07-10T15:31:06.735Z,4.05
2023-07-10T15:33:36.385Z,3.17
2023-07-10T15:36:04.431Z,5.78
2023-07-10T15:38:32.556Z,5.07
2023-07-10T15:41:01.908Z,4.10
2023-07-10T15:43:31.439Z,11.65
2023-07-10T15:46:01.637Z,5.63
2023-07-10T15:48:29.144Z,9.27
2023-07-10T15:50:57.942Z,10.18
2023-07-10T15:53:28.393Z,6.70
2023-07-10T15:55:55.521Z,8.68
2023-07-10T15:58:23.870Z,6.15
2023-07-10T16:00:53.067Z,8.73
2023-07-10T16:03:27.252Z,13.25
2023-07-10T16:05:56.473Z,7.20
2023-07-10T16:08:25.849Z,4.05
2023-07-10T16:10:59.725Z,10.90
2023-07-10T16:13:28.324Z,9.50
2023-07-10T16:15:55.176Z,8.65
2023-07-10T16:18:28.241Z,6.10
2023-07-10T16:20:57.168Z,10.95
2023-07-10T16:23:29.007Z,6.65
2023-07-10T16:25:55.999Z,11.45
2023-07-10T16:28:25.170Z,7.75
2023-07-10T16:30:52.911Z,10.20
2023-07-10T16:33:22.089Z,8.77
2023-07-10T16:35:51.446Z,8.25
2023-07-10T16:38:19.958Z,9.88
2023-07-10T16:40:49.890Z,5.43
2023-07-10T16:43:19.454Z,7.55
2023-07-10T16:45:53.608Z,5.60
2023-07-10T16:48:23.067Z,6.00
2023-07-10T16:50:53.512Z,5.85
2023-07-10T16:53:26.972Z,9.48
2023-07-10T16:55:54.981Z,3.83
2023-07-10T16:58:23.501Z,18.55
2023-07-10T17:00:50.888Z,5.50
2023-07-10T17:03:21.301Z,6.07
2023-07-10T17:05:48.307Z,7.63
2023-07-10T17:08:19.762Z,6.68
2023-07-10T17:10:47.633Z,6.13
2023-07-10T17:13:16.897Z,7.32
2023-07-10T17:15:44.276Z,4.97
2023-07-10T17:18:16.646Z,8.52
2023-07-10T17:20:44.539Z,5.03
2023-07-10T17:23:19.121Z,3.97
2023-07-10T17:25:47.005Z,5.60
2023-07-10T17:28:15.580Z,8.20
2023-07-10T17:30:42.942Z,6.45
2023-07-10T17:33:37.190Z,7.15
2023-07-10T17:36:04.928Z,9.05
2023-07-10T17:38:34.818Z,6.13
2023-07-10T17:41:02.154Z,7.75
2023-07-10T17:43:32.210Z,5.45
2023-07-10T17:46:00.268Z,5.57
2023-07-10T17:48:27.715Z,5.43
2023-07-10T17:50:56.513Z,4.30
2023-07-10T17:53:24.694Z,12.00
2023-07-10T17:55:58.965Z,6.07
2023-07-10T17:58:28.016Z,9.32
2023-07-10T18:00:55.275Z,7.18
2023-07-10T18:03:26.480Z,5.85
2023-07-10T18:05:53.605Z,7.10
2023-07-10T18:08:23.082Z,8.13
2023-07-10T18:10:56.464Z,11.35
2023-07-10T18:15:56.172Z,6.70
2023-07-10T18:18:23.637Z,7.75
2023-07-10T18:20:50.483Z,11.25
2023-07-10T18:23:22.901Z,58.15
2023-07-10T18:25:53.044Z,8.88
2023-07-10T18:28:26.980Z,6.72
2023-07-10T18:30:55.484Z,12.75
2023-07-10T18:33:24.633Z,10.73
2023-07-10T18:35:53.673Z,9.02
2023-07-10T18:38:22.860Z,6.25
2023-07-10T18:40:53.293Z,2.78
2023-07-10T18:43:25.338Z,6.90
2023-07-10T18:45:53.838Z,4.47
2023-07-10T18:48:30.004Z,9.32
2023-07-10T18:51:01.580Z,12.27
2023-07-10T18:53:30.940Z,7.70
2023-07-10T18:55:57.886Z,5.47
2023-07-10T18:58:28.030Z,9.70
2023-07-10T19:00:56.740Z,7.00
2023-07-10T19:03:24.415Z,4.55
2023-07-10T19:05:52.873Z,3.15
2023-07-10T19:08:22.474Z,5.43
2023-07-10T19:10:49.427Z,8.02
2023-07-10T19:13:18.712Z,10.63
2023-07-10T19:15:50.312Z,15.45
2023-07-10T19:18:20.558Z,12.85
2023-07-10T19:20:47.978Z,7.70
2023-07-10T19:23:20.970Z,9.98
2023-07-10T19:25:49.075Z,3.97
2023-07-10T19:28:17.444Z,7.97
2023-07-10T19:30:51.500Z,5.93
2023-07-10T19:33:24.201Z,19.15
2023-07-10T19:35:52.490Z,7.60
2023-07-10T19:38:22.038Z,8.82
2023-07-10T19:40:49.947Z,5.47
2023-07-10T19:43:16.843Z,21.05
2023-07-10T19:45:44.541Z,7.72
2023-07-10T19:48:16.232Z,6.10
2023-07-10T19:50:43.782Z,7.18
2023-07-10T19:53:15.287Z,8.82
2023-07-10T19:55:42.365Z,10.95
2023-07-10T19:58:13.406Z,11.98
2023-07-10T20:00:40.889Z,6.03
2023-07-10T20:03:15.470Z,5.03
2023-07-10T20:05:42.926Z,8.85
2023-07-10T20:08:13.156Z,10.63
2023-07-10T20:10:39.961Z,4.65
2023-07-10T20:13:13.079Z,6.68
2023-07-10T20:15:41.096Z,10.02
2023-07-10T20:18:19.389Z,13.20
2023-07-10T20:20:46.980Z,5.72
2023-07-10T20:23:16.021Z,3.65
2023-07-10T20:25:43.599Z,12.30
2023-07-10T20:28:16.730Z,7.15
2023-07-10T20:30:43.809Z,9.65
2023-07-10T20:33:14.962Z,7.03
2023-07-10T20:35:44.245Z,12.23
2023-07-10T20:38:15.781Z,11.73
2023-07-10T20:40:42.721Z,8.02
2023-07-10T20:43:16.506Z,5.50
2023-07-10T20:45:45.118Z,3.28
2023-07-10T20:48:21.431Z,5.78
2023-07-10T20:50:51.333Z,6.57
2023-07-10T20:53:19.581Z,7.68
2023-07-10T20:55:49.225Z,4.43
2023-07-10T20:58:18.840Z,8.85
2023-07-10T21:00:46.331Z,14.77
2023-07-10T21:03:15.974Z,16.23
2023-07-10T21:05:44.078Z,8.45
2023-07-10T21:08:19.835Z,15.45
2023-07-10T21:10:47.061Z,7.32
2023-07-10T21:13:14.724Z,6.22
2023-07-10T21:15:41.859Z,5.75
2023-07-10T21:18:13.257Z,10.70
2023-07-10T21:20:40.511Z,8.93
2023-07-10T21:23:25.257Z,5.18
2023-07-10T21:25:52.283Z,8.90
2023-07-10T21:28:20.727Z,4.53
2023-07-10T21:30:47.781Z,7.00
2023-07-10T21:33:18.177Z,10.52
2023-07-10T21:35:45.288Z,7.10
2023-07-10T21:38:12.113Z,8.88
2023-07-10T21:40:42.970Z,6.03
2023-07-10T21:43:16.002Z,6.25
2023-07-10T21:45:42.879Z,6.90
2023-07-10T21:48:15.760Z,6.65
2023-07-10T21:50:42.704Z,14.38
2023-07-10T21:53:09.539Z,4.40
2023-07-10T21:55:36.502Z,4.28
2023-07-10T21:58:05.465Z,5.78
2023-07-10T22:00:32.306Z,4.00
2023-07-10T22:02:59.187Z,7.78
2023-07-10T22:05:26.236Z,7.10
2023-07-10T22:07:53.199Z,9.07
2023-07-10T22:10:20.024Z,8.20
2023-07-10T22:12:46.854Z,7.60
2023-07-10T22:15:20.685Z,7.40
2023-07-10T22:17:47.755Z,9.32
2023-07-10T22:20:19.280Z,9.00
2023-07-10T22:22:46.765Z,11.93
2023-07-10T22:25:15.326Z,8.45
2023-07-10T22:27:42.163Z,7.53
2023-07-10T22:30:09.732Z,6.90
2023-07-10T22:32:38.119Z,4.70
2023-07-10T22:35:05.711Z,6.40
2023-07-10T22:37:32.551Z,9.50
2023-07-10T22:39:59.397Z,9.30
2023-07-10T22:42:26.412Z,5.55
2023-07-10T22:44:53.260Z,6.35
2023-07-10T22:47:20.165Z,4.63
2023-07-10T22:49:48.334Z,12.52
2023-07-10T22:52:16.000Z,7.75
2023-07-10T22:54:42.807Z,6.32
2023-07-10T22:57:10.549Z,6.57
2023-07-10T22:59:37.388Z,7.68
2023-07-10T23:02:04.544Z,8.68
2023-07-10T23:04:31.396Z,5.15
2023-07-10T23:07:02.400Z,5.82
2023-07-10T23:09:29.297Z,8.70
2023-07-10T23:11:56.176Z,7.10
2023-07-10T23:14:23.045Z,12.40
2023-07-10T23:16:49.876Z,8.20
2023-07-10T23:19:16.834Z,8.93
2023-07-10T23:21:43.668Z,9.68
2023-07-10T23:24:12.823Z,8.32
2023-07-10T23:26:39.654Z,13.52
2023-07-10T23:29:06.544Z,6.72
2023-07-10T23:31:34.543Z,10.68
2023-07-10T23:34:01.403Z,9.85
2023-07-10T23:36:29.340Z,10.20
2023-07-10T23:38:57.012Z,8.38
2023-07-10T23:41:25.346Z,8.48
2023-07-10T23:43:52.174Z,7.30
2023-07-10T23:46:18.956Z,12.48
2023-07-10T23:48:46.142Z,8.85
2023-07-10T23:51:13.035Z,9.35
2023-07-10T23:53:40.338Z,9.27
2023-07-10T23:56:08.845Z,7.55
2023-07-10T23:58:37.472Z,11.60
